Home > Products > Valid Products > MTR

000
SAUS43 KABR 200757
MTR8D3
METAR K8D3 200756Z AUTO 17004KT 17/17 A2977 RMK AO1 SLP063 T01670167





000
SAUS43 KABR 200657
MTR8D3
METAR K8D3 200656Z AUTO 16004KT 17/17 A2977 RMK AO1 SLP063 T01720172





000
SAUS43 KABR 200557
MTR8D3
METAR K8D3 200556Z AUTO 22003KT 18/18 A2978 RMK AO1 SLP068 T01780178
10267 20178 402890144 51004





000
SAUS43 KABR 200457
MTR8D3
METAR K8D3 200456Z AUTO 20004KT 18/18 A2978 RMK AO1 SLP066 T01830178





000
SAUS43 KABR 200357
MTR8D3
METAR K8D3 200356Z AUTO 00000KT 19/18 A2978 RMK AO1 SLP068 T01890183





000
SAUS43 KABR 200257
MTR8D3
METAR K8D3 200256Z AUTO 16004KT 20/18 A2977 RMK AO1 SLP065 T02000183
53010





000
SAUS43 KABR 200157
MTR8D3
METAR K8D3 200156Z AUTO 18004KT 21/19 A2976 RMK AO1 SLP062 T02110189





000
SAUS43 KABR 200057
MTR8D3
METAR K8D3 200056Z AUTO 14003KT 24/20 A2974 RMK AO1 SLP056 T02440200





000
SAUS43 KABR 192357
MTR8D3
METAR K8D3 192356Z AUTO 08003KT 26/20 A2974 RMK AO1 SLP054 T02560200
10289 20256 58003





000
SAUS43 KABR 192257
MTR8D3
METAR K8D3 192256Z AUTO 05004KT 28/18 A2975 RMK AO1 SLP056 T02780183





000
SAUS43 KABR 192157
MTR8D3
METAR K8D3 192156Z AUTO 02004KT 28/18 A2975 RMK AO1 SLP055 T02830183





000
SAUS43 KABR 192057
MTR8D3
METAR K8D3 192056Z AUTO VRB04KT 28/19 A2975 RMK AO1 SLP058 T02830189
58004





000
SAUS43 KABR 191957
MTR8D3
METAR K8D3 191956Z AUTO 36008KT 29/18 A2976 RMK AO1 SLP060 T02890183





000
SAUS43 KABR 191858
MTR8D3
METAR K8D3 191856Z AUTO 01008KT 28/18 A2976 RMK AO1 SLP061 T02830183





000
SAUS43 KABR 191757
MTR8D3
METAR K8D3 191756Z AUTO 01006KT 27/18 A2976 RMK AO1 SLP060 T02720183
10272 20183 58001





000
SAUS43 KABR 191657
MTR8D3
METAR K8D3 191656Z AUTO 34008KT 27/18 A2977 RMK AO1 SLP064 T02670183





000
SAUS43 KABR 191557
MTR8D3
METAR K8D3 191556Z AUTO 35009KT 26/18 A2978 RMK AO1 SLP065 T02560183





000
SAUS43 KABR 191457
MTR8D3
METAR K8D3 191456Z AUTO 35010KT 24/18 A2976 RMK AO1 SLP062 T02440183
50002





000
SAUS43 KABR 191357
MTR8D3
METAR K8D3 191356Z AUTO 33007KT 23/18 A2977 RMK AO1 SLP064 T02280183





000
SAUS43 KABR 191257
MTR8D3
METAR K8D3 191256Z AUTO 32004KT 19/18 A2976 RMK AO1 SLP064 T01890178





000
SAUS43 KABR 191157
MTR8D3
METAR K8D3 191156Z AUTO 31007KT 18/17 A2976 RMK AO1 SLP061 T01830167
10183 20144 51010





000
SAUS43 KABR 191058
MTR8D3
METAR K8D3 191056Z AUTO 29005KT 18/17 A2975 RMK AO1 SLP059 T01830172





000
SAUS43 KABR 190957
MTR8D3
METAR K8D3 190956Z AUTO 26003KT 17/17 A2974 RMK AO1 SLP056 T01720167





000
SAUS43 KABR 190857
MTR8D3
METAR K8D3 190856Z AUTO 00000KT 14/14 A2973 RMK AO1 SLP052 T01440144
55003





000
SAUS43 KABR 190757
MTR8D3
METAR K8D3 190756Z AUTO 00000KT 16/16 A2972 RMK AO1 SLP048 T01610156





000
SAUS43 KABR 190657
MTR8D3
METAR K8D3 190656Z AUTO 00000KT 17/17 A2973 RMK AO1 SLP051 T01720167





000
SAUS43 KABR 190558
MTR8D3
METAR K8D3 190556Z AUTO 33003KT 18/17 A2974 RMK AO1 SLP053 T01780172
10239 20178 402780161 50001





000
SAUS43 KABR 190457
MTR8D3
METAR K8D3 190456Z AUTO 32005KT 19/18 A2974 RMK AO1 SLP053 T01890178





000
SAUS43 KABR 190357
MTR8D3
METAR K8D3 190356Z AUTO 31007KT 20/18 A2974 RMK AO1 SLP053 T02000178





000
SAUS43 KABR 190257
MTR8D3
METAR K8D3 190256Z AUTO 31007KT 20/18 A2973 RMK AO1 SLP053 T02000183
52014





000
SAUS43 KABR 190157
MTR8D3
METAR K8D3 190156Z AUTO 32007KT 20/18 A2972 RMK AO1 SLP048 T02000178





000
SAUS43 KABR 190058
MTR8D3
METAR K8D3 190056Z AUTO 33009KT 22/18 A2971 RMK AO1 SLP044 T02220178





000
SAUS43 KABR 182357
MTR8D3
METAR K8D3 182356Z AUTO 34012G17KT 24/17 A2969 RMK AO1 SLP038
T02390172 10278 20217 58003





000
SAUS43 KABR 182257
MTR8D3
METAR K8D3 182256Z AUTO 30009KT 24/18 A2971 RMK AO1 SLP044 T02390183





000
SAUS43 KABR 182157
MTR8D3
METAR K8D3 182156Z AUTO 30009KT 23/17 A2971 RMK AO1 SLP047 T02330172





000
SAUS43 KABR 182057
MTR8D3
METAR K8D3 182056Z AUTO 34005KT 26/18 A2970 RMK AO1 SLP040 T02610183
57007





000
SAUS43 KABR 181957
MTR8D3
METAR K8D3 181956Z AUTO 31010KT 27/18 A2971 RMK AO1 SLP043 T02720183





000
SAUS43 KABR 181857
MTR8D3
METAR K8D3 181856Z AUTO 28013G18KT 27/18 A2971 RMK AO1 SLP045
T02720178





000
SAUS43 KABR 181757
MTR8D3
METAR K8D3 181756Z AUTO 28008KT 25/17 A2972 RMK AO1 SLP049 T02500172
10267 20183 58007





000
SAUS43 KABR 181657
MTR8D3
METAR K8D3 181656Z AUTO 28005KT 26/18 A2973 RMK AO1 SLP051 T02610178





000
SAUS43 KABR 181557
MTR8D3
METAR K8D3 181556Z AUTO 27012KT 23/17 A2974 RMK AO1 SLP054 T02330167





000
SAUS43 KABR 181458
MTR8D3
METAR K8D3 181456Z AUTO 27012KT 23/17 A2974 RMK AO1 SLP055 T02330172
56011





000
SAUS43 KABR 181357
MTR8D3
METAR K8D3 181356Z AUTO 27018G23KT 22/16 A2975 RMK AO1 SLP059
T02170156





000
SAUS43 KABR 181257
MTR8D3
METAR K8D3 181256Z AUTO 27015G21KT 20/14 A2976 RMK AO1 SLP062
T02000144





000
SAUS43 KABR 181157
MTR8D3
METAR K8D3 181156Z AUTO 26009G25KT 19/15 A2978 RMK AO1 SLP066 70001
T01890150 10189 20161 55005





000
SAUS43 KABR 181057
MTR8D3
METAR K8D3 181056Z AUTO 00000KT 18/16 A2977 RMK AO1 SLP066 T01780156





000
SAUS43 KABR 180957
MTR8D3
METAR K8D3 180956Z AUTO 28005KT 18/16 A2978 RMK AO1 SLP069 T01780161





000
SAUS43 KABR 180757
MTR8D3
METAR K8D3 180756Z AUTO 26006KT 17/17 A2980 RMK AO1 SLP074 T01720167





000
SAUS43 KABR 180657
MTR8D3
METAR K8D3 180656Z AUTO 33008KT 17/17 A2981 RMK AO1 SLP079 T01720172





000
SAUS43 KABR 180557
MTR8D3
METAR K8D3 180556Z AUTO 14006KT 18/18 A2978 RMK AO1 SLP068 60001
T01830183 10256 20183 402720183 58029





000
SAUS43 KABR 180458
MTR8D3
METAR K8D3 180456Z AUTO 34003KT 20/18 A2982 RMK AO1 SLP082 P0001
T02000183





000
SAUS43 KABR 180357
MTR8D3
METAR K8D3 180356Z AUTO 19003KT 22/21 A2986 RMK AO1 SLP096 T02170211





000
SAUS43 KABR 180257
MTR8D3
METAR K8D3 180256Z AUTO 00000KT 21/21 A2987 RMK AO1 SLP099 T02060206
51011





000
SAUS43 KABR 180157
MTR8D3
METAR K8D3 180156Z AUTO 00000KT 21/21 A2987 RMK AO1 SLP098 T02110206





000
SAUS43 KABR 180057
MTR8D3
METAR K8D3 180056Z AUTO 10004KT 23/22 A2985 RMK AO1 SLP092 T02280217





000
SAUS43 KABR 172358
MTR8D3
METAR K8D3 172356Z AUTO 09007KT 26/22 A2984 RMK AO1 SLP085 T02610222
10272 20244 56020





000
SAUS43 KABR 172257
MTR8D3
METAR K8D3 172256Z AUTO 03005KT 26/21 A2985 RMK AO1 SLP089 T02610211





000
SAUS43 KABR 172158
MTR8D3
METAR K8D3 172156Z AUTO 03007KT 27/22 A2986 RMK AO1 SLP094 T02670217





000
SAUS43 KABR 172057
MTR8D3
METAR K8D3 172056Z AUTO 36006KT 26/22 A2990 RMK AO1 SLP106 T02560217
56007





000
SAUS43 KABR 171957
MTR8D3
METAR K8D3 171956Z AUTO 01007KT 27/22 A2990 RMK AO1 SLP107 T02670217





000
SAUS43 KABR 171857
MTR8D3
METAR K8D3 171856Z AUTO VRB03KT 26/21 A2990 RMK AO1 SLP108 T02560211





000
SAUS43 KABR 171757
MTR8D3
METAR K8D3 171756Z AUTO 04005KT 24/22 A2992 RMK AO1 SLP113 T02440217
10250 20200 50002





000
SAUS43 KABR 171657
MTR8D3
METAR K8D3 171656Z AUTO 03004KT 24/21 A2992 RMK AO1 SLP115 T02390211





000
SAUS43 KABR 171557
MTR8D3
METAR K8D3 171556Z AUTO 35004KT 23/21 A2993 RMK AO1 SLP117 T02280211





000
SAUS43 KABR 171457
MTR8D3
METAR K8D3 171456Z AUTO 03004KT 22/21 A2991 RMK AO1 SLP111 T02170206
50005





000
SAUS43 KABR 171357
MTR8D3
METAR K8D3 171356Z AUTO 05006KT 22/20 A2991 RMK AO1 SLP111 T02170200





000
SAUS43 KABR 171258
MTR8D3
METAR K8D3 171256Z AUTO 30004KT 20/19 A2990 RMK AO1 SLP107 T02000194





000
SAUS43 KABR 171157
MTR8D3
METAR K8D3 171156Z AUTO 00000KT 20/20 A2990 RMK AO1 SLP105 T02000200
10217 20200 53004





000
SAUS43 KABR 171057
MTR8D3
METAR K8D3 171056Z AUTO 00000KT 21/19 A2989 RMK AO1 SLP102 T02060194





000
SAUS43 KABR 170957
MTR8D3
METAR K8D3 170956Z AUTO 26003KT 20/19 A2988 RMK AO1 SLP099 T02000189





000
SAUS43 KABR 170857
MTR8D3
METAR K8D3 170856Z AUTO 00000KT 21/19 A2988 RMK AO1 SLP099 T02060189
55005





    US Dept of Commerce
    National Oceanic and Atmospheric Administration
    National Weather Service
    1325 East West Highway
    Silver Spring, MD 20910
    Page Author: NWS Internet Services Team
Disclaimer
Information Quality
Credits
Glossary
Privacy Policy
Freedom of Information Act (FOIA)
About Us
Career Opportunities